Time;durP1;ratioP1;P1;durP2;ratioP2;P2;SDS_P1;SDS_P2;PMS_P1;PMS_P2;Temp;Humidity;BMP_temperature;BMP_pressure;BME280_temperature;BME280_humidity;BME280_pressure;Samples;Min_cycle;Max_cycle;Signal;HPM_P1;HPM_P2
2021/11/26 00:00:18;;;;;;;25.72;9.93;;;;;;;-3.76;73.60;102058.09;1909293;75;21047;-65
2021/11/26 00:02:47;;;;;;;22.80;9.68;;;;;;;-3.76;73.69;102056.80;1909330;75;21157;-63
2021/11/26 00:05:16;;;;;;;32.00;11.25;;;;;;;-3.75;73.39;102054.71;1909218;75;21051;-64
2021/11/26 00:07:45;;;;;;;47.03;19.42;;;;;;;-3.73;73.13;102059.09;1909138;75;21129;-63
2021/11/26 00:10:13;;;;;;;41.80;19.70;;;;;;;-3.70;73.04;102049.35;1909093;75;21036;-64
2021/11/26 00:12:50;;;;;;;32.38;16.25;;;;;;;-3.67;72.85;102053.34;1909202;75;21093;-63
2021/11/26 00:15:35;;;;;;;51.70;19.75;;;;;;;-3.68;73.06;102041.27;1907870;75;21113;-64
2021/11/26 00:17:53;;;;;;;37.48;14.45;;;;;;;-3.66;72.84;102058.08;1905611;75;21063;-63
2021/11/26 00:20:22;;;;;;;30.32;12.13;;;;;;;-3.71;73.11;102051.44;1909305;75;21090;-64
2021/11/26 00:22:51;;;;;;;33.90;13.45;;;;;;;-3.74;72.90;102044.48;1909149;75;21561;-64
2021/11/26 00:25:20;;;;;;;41.35;16.85;;;;;;;-3.77;73.04;102046.05;1909160;75;21563;-64
2021/11/26 00:27:51;;;;;;;31.25;12.63;;;;;;;-3.80;73.41;102049.39;1909173;75;21044;-64
2021/11/26 00:30:20;;;;;;;24.27;10.88;;;;;;;-3.82;73.36;102042.41;1909205;75;21113;-64
2021/11/26 00:32:49;;;;;;;17.98;7.75;;;;;;;-3.84;73.33;102041.47;1909197;75;21469;-64
2021/11/26 00:35:18;;;;;;;28.55;11.85;;;;;;;-3.84;73.24;102040.19;1909123;75;21063;-64
2021/11/26 00:37:47;;;;;;;34.50;16.35;;;;;;;-3.83;73.14;102035.52;1909325;75;21113;-64
2021/11/26 00:40:16;;;;;;;40.50;15.95;;;;;;;-3.91;73.60;102024.50;1909177;75;21055;-63
2021/11/26 00:42:45;;;;;;;37.53;13.80;;;;;;;-3.94;73.74;102018.35;1909161;75;21056;-64
2021/11/26 00:45:16;;;;;;;36.28;15.35;;;;;;;-3.97;73.81;102019.50;1909174;75;21132;-64
2021/11/26 00:47:45;;;;;;;41.48;16.93;;;;;;;-3.95;73.59;102007.58;1909093;75;21016;-64
2021/11/26 00:50:16;;;;;;;29.50;11.53;;;;;;;-3.93;73.89;102008.12;1909163;75;21040;-64
2021/11/26 00:52:45;;;;;;;41.68;18.12;;;;;;;-3.92;73.82;101998.28;1909228;75;21041;-63
2021/11/26 00:55:14;;;;;;;35.60;15.25;;;;;;;-3.92;74.12;102007.70;1909210;75;21043;-63
2021/11/26 00:57:43;;;;;;;22.10;8.85;;;;;;;-3.92;74.27;102000.86;1909190;75;21501;-63
2021/11/26 01:00:15;;;;;;;13.60;8.70;;;;;;;-3.90;73.97;101995.78;1909060;75;21189;-63
2021/11/26 01:02:44;;;;;;;35.10;13.15;;;;;;;-3.87;73.72;101993.34;1909170;75;21131;-63
2021/11/26 01:05:16;;;;;;;36.65;14.73;;;;;;;-3.86;73.62;101987.78;1909128;75;21553;-63
2021/11/26 01:07:45;;;;;;;51.65;18.60;;;;;;;-3.92;73.70;101984.13;1909148;75;21047;-63
2021/11/26 01:10:16;;;;;;;20.02;9.58;;;;;;;-3.99;74.17;101972.25;1909151;75;21039;-63
2021/11/26 01:12:45;;;;;;;34.03;14.95;;;;;;;-3.98;74.32;101975.31;1909154;75;21063;-63
2021/11/26 01:15:17;;;;;;;33.05;14.85;;;;;;;-3.99;74.25;101973.13;1909223;75;21122;-63
2021/11/26 01:17:47;;;;;;;28.05;11.43;;;;;;;-3.99;74.37;101974.41;1907350;75;21573;-63
2021/11/26 01:20:18;;;;;;;30.55;11.18;;;;;;;-4.01;74.25;101970.90;1909080;75;21486;-63
2021/11/26 01:22:48;;;;;;;25.30;9.55;;;;;;;-4.00;73.95;101968.81;1909279;75;21012;-63
2021/11/26 01:25:18;;;;;;;35.65;12.37;;;;;;;-3.96;73.87;101956.95;1909076;75;21063;-63
2021/11/26 01:27:47;;;;;;;27.10;9.68;;;;;;;-3.96;74.01;101953.95;1909225;75;21015;-63
2021/11/26 01:30:28;;;;;;;17.20;7.28;;;;;;;-3.95;74.21;101956.11;1909157;75;21011;-63
2021/11/26 01:32:54;;;;;;;24.63;10.40;;;;;;;-3.95;73.85;101958.27;1907850;75;21507;-63
2021/11/26 01:35:24;;;;;;;31.85;10.63;;;;;;;-3.91;73.88;101965.31;1907250;74;21611;-63
2021/11/26 01:37:53;;;;;;;31.40;13.08;;;;;;;-3.92;73.82;101962.27;1909054;75;21627;-64
2021/11/26 01:40:23;;;;;;;30.45;11.48;;;;;;;-3.92;73.78;101957.11;1909166;75;21560;-63
2021/11/26 01:42:54;;;;;;;35.00;14.05;;;;;;;-3.92;73.92;101962.67;1909134;75;21475;-63
2021/11/26 01:45:23;;;;;;;22.42;8.10;;;;;;;-3.96;74.09;101960.80;1909097;75;21127;-63
2021/11/26 01:47:52;;;;;;;28.40;11.63;;;;;;;-3.98;74.12;101959.45;1891546;75;21654;-62
2021/11/26 01:50:25;;;;;;;27.25;10.20;;;;;;;-3.96;73.91;101959.52;1879933;76;21036;-61
2021/11/26 01:52:54;;;;;;;26.93;9.40;;;;;;;-3.96;73.93;101951.80;1860681;77;21576;-61
2021/11/26 01:55:23;;;;;;;26.65;10.20;;;;;;;-3.95;73.90;101949.27;1852654;77;21090;-61
2021/11/26 01:57:51;;;;;;;30.08;11.28;;;;;;;-3.92;73.74;101944.25;1853036;75;21122;-62
2021/11/26 02:00:26;;;;;;;24.60;10.65;;;;;;;-3.89;73.56;101944.38;1845259;78;21123;-61
2021/11/26 02:02:55;;;;;;;33.30;12.60;;;;;;;-3.88;73.49;101941.39;1855123;76;21083;-62
2021/11/26 02:05:25;;;;;;;22.50;8.58;;;;;;;-3.86;73.45;101942.74;1893137;76;21052;-61
2021/11/26 02:07:54;;;;;;;27.15;10.68;;;;;;;-3.87;73.46;101941.87;1893024;76;21104;-62
2021/11/26 02:10:23;;;;;;;26.20;10.08;;;;;;;-3.84;73.34;101946.25;1916188;73;21098;-62
2021/11/26 02:12:52;;;;;;;37.40;13.62;;;;;;;-3.79;73.30;101950.75;1924261;73;21014;-63
2021/11/26 02:15:24;;;;;;;31.55;12.82;;;;;;;-3.79;73.50;101946.89;1913315;74;21534;-63
2021/11/26 02:17:54;;;;;;;25.65;9.60;;;;;;;-3.81;73.82;101943.80;1913356;75;21569;-63
2021/11/26 02:20:26;;;;;;;29.48;12.10;;;;;;;-3.83;73.94;101946.73;1914108;73;21116;-61
2021/11/26 02:22:57;;;;;;;25.40;9.98;;;;;;;-3.82;73.68;101960.05;1913432;75;21161;-62
2021/11/26 02:25:28;;;;;;;21.52;9.28;;;;;;;-3.88;73.47;101966.70;1913653;75;21037;-63
2021/11/26 02:28:00;;;;;;;32.13;11.38;;;;;;;-3.95;73.41;101961.26;1913309;75;21037;-63
2021/11/26 02:30:29;;;;;;;27.55;9.83;;;;;;;-3.99;73.42;101951.25;1913514;75;21468;-62
2021/11/26 02:33:07;;;;;;;15.23;8.38;;;;;;;-3.99;73.38;101951.25;1913357;75;21469;-61
2021/11/26 02:35:37;;;;;;;24.07;7.65;;;;;;;-4.01;73.32;101950.31;1912488;74;21546;-61
2021/11/26 02:38:09;;;;;;;17.73;6.70;;;;;;;-3.99;73.19;101952.95;1913442;74;21095;-62
2021/11/26 02:40:40;;;;;;;22.90;9.85;;;;;;;-3.99;73.11;101949.97;1914154;73;21125;-62
2021/11/26 02:43:10;;;;;;;29.07;10.50;;;;;;;-4.01;73.01;101943.88;1900408;74;21043;-62
2021/11/26 02:45:40;;;;;;;29.80;11.83;;;;;;;-4.02;73.10;101942.53;1893282;75;21107;-63
2021/11/26 02:48:09;;;;;;;23.60;9.53;;;;;;;-4.01;73.19;101942.59;1918119;74;21794;-62
2021/11/26 02:50:38;;;;;;;27.10;8.60;;;;;;;-3.99;73.24;101937.52;1920020;73;21586;-63
2021/11/26 02:53:07;;;;;;;19.70;8.65;;;;;;;-3.96;73.15;101941.09;1918181;73;21141;-62
2021/11/26 02:55:38;;;;;;;19.82;8.88;;;;;;;-3.92;72.96;101938.23;1922522;74;21060;-63
2021/11/26 02:58:08;;;;;;;29.92;10.53;;;;;;;-3.90;72.86;101929.74;1938171;73;21091;-63
2021/11/26 03:00:39;;;;;;;23.65;9.45;;;;;;;-3.89;72.83;101921.22;1955829;73;21493;-63
2021/11/26 03:03:09;;;;;;;29.80;10.82;;;;;;;-3.87;72.83;101916.14;1927014;73;21024;-63
2021/11/26 03:05:39;;;;;;;31.95;10.95;;;;;;;-3.85;72.82;101916.17;1918415;75;21045;-62
2021/11/26 03:08:08;;;;;;;36.42;10.10;;;;;;;-3.85;72.85;101921.31;1923723;74;21113;-62
2021/11/26 03:10:38;;;;;;;22.95;9.30;;;;;;;-3.86;72.87;101915.30;1926722;74;21486;-63
2021/11/26 03:13:09;;;;;;;22.58;9.38;;;;;;;-3.86;73.04;101920.87;1926748;74;21512;-62
2021/11/26 03:15:39;;;;;;;28.98;10.70;;;;;;;-3.89;73.19;101912.63;1930506;74;21018;-64
2021/11/26 03:18:11;;;;;;;35.80;13.70;;;;;;;-3.91;73.10;101917.72;1935788;74;20989;-62
2021/11/26 03:20:39;;;;;;;31.48;11.93;;;;;;;-3.95;73.28;101916.23;1935728;74;21107;-62
2021/11/26 03:23:08;;;;;;;29.25;11.18;;;;;;;-3.95;73.53;101917.09;1935784;74;21029;-63
2021/11/26 03:25:40;;;;;;;32.67;12.13;;;;;;;-3.96;73.51;101928.64;1924091;74;21143;-60
2021/11/26 03:28:09;;;;;;;35.30;14.13;;;;;;;-4.01;73.63;101924.59;1912946;74;21032;-59
2021/11/26 03:30:39;;;;;;;26.55;10.65;;;;;;;-4.01;73.71;101925.88;1940532;73;21458;-60
2021/11/26 03:33:08;;;;;;;27.32;11.43;;;;;;;-4.03;73.64;101922.37;1938748;74;20989;-58
2021/11/26 03:35:38;;;;;;;17.65;7.40;;;;;;;-4.03;73.77;101924.94;1938678;74;20984;-59
2021/11/26 03:38:07;;;;;;;36.00;11.35;;;;;;;-3.95;74.02;101925.23;1938748;74;21423;-58
2021/11/26 03:40:36;;;;;;;38.10;12.93;;;;;;;-3.94;74.01;101927.01;1939020;74;21445;-60
2021/11/26 03:43:05;;;;;;;32.88;11.90;;;;;;;-3.93;73.97;101922.31;1944854;74;21176;-59
2021/11/26 03:45:35;;;;;;;32.23;12.98;;;;;;;-3.92;73.92;101926.23;1945050;74;21067;-60
2021/11/26 03:48:04;;;;;;;36.40;13.22;;;;;;;-3.91;73.89;101927.10;1944946;73;21047;-59
2021/11/26 03:50:33;;;;;;;23.38;9.60;;;;;;;-3.90;74.05;101931.45;1945864;73;20968;-59
2021/11/26 03:53:02;;;;;;;32.42;10.43;;;;;;;-3.90;73.85;101923.31;1949812;73;21101;-59
2021/11/26 03:55:31;;;;;;;36.40;10.70;;;;;;;-3.89;73.77;101923.80;1938615;74;21145;-60
2021/11/26 03:58:00;;;;;;;25.88;10.50;;;;;;;-3.90;73.85;101925.88;1938696;74;21098;-59
2021/11/26 04:00:29;;;;;;;31.77;12.07;;;;;;;-3.91;73.76;101931.86;1938747;74;21543;-59
2021/11/26 04:02:58;;;;;;;23.18;10.00;;;;;;;-3.91;73.87;101919.38;1938659;74;21527;-59
2021/11/26 04:05:27;;;;;;;24.12;10.80;;;;;;;-3.96;73.71;101926.94;1909845;73;21466;-60
2021/11/26 04:07:56;;;;;;;23.15;9.73;;;;;;;-3.96;73.96;101920.92;1874319;76;21522;-59
2021/11/26 04:10:25;;;;;;;22.98;9.03;;;;;;;-3.95;73.94;101920.09;1872591;77;21064;-59
2021/11/26 04:12:55;;;;;;;26.40;9.28;;;;;;;-3.90;74.00;101921.16;1872710;77;21134;-60
2021/11/26 04:15:24;;;;;;;11.93;3.80;;;;;;;-3.88;73.90;101916.52;1873990;75;21614;-59
2021/11/26 04:17:55;;;;;;;18.87;8.95;;;;;;;-3.83;74.24;101915.84;1894915;75;21449;-60
2021/11/26 04:20:24;;;;;;;22.87;8.33;;;;;;;-3.82;74.02;101923.60;1903380;75;21038;-59
2021/11/26 04:22:53;;;;;;;20.62;7.72;;;;;;;-3.83;73.82;101920.58;1903509;75;21051;-59
2021/11/26 04:25:23;;;;;;;24.82;8.98;;;;;;;-3.82;73.69;101914.59;1903474;75;21473;-61
2021/11/26 04:27:52;;;;;;;32.88;9.35;;;;;;;-3.84;73.70;101925.66;1903484;75;21105;-60
2021/11/26 04:30:24;;;;;;;24.60;10.08;;;;;;;-3.89;73.79;101923.80;1895172;75;21138;-59
2021/11/26 04:32:53;;;;;;;23.07;8.53;;;;;;;-3.86;73.68;101920.87;1875808;76;21122;-61
2021/11/26 04:35:22;;;;;;;14.83;6.30;;;;;;;-3.86;73.65;101916.59;1878695;76;21487;-60
2021/11/26 04:37:51;;;;;;;24.80;7.37;;;;;;;-3.82;73.76;101918.88;1879450;76;21552;-59
2021/11/26 04:40:20;;;;;;;20.77;7.00;;;;;;;-3.81;73.76;101925.79;1877744;75;21130;-60
2021/11/26 04:42:49;;;;;;;17.85;7.30;;;;;;;-3.80;73.65;101925.85;1912149;75;21023;-60
2021/11/26 04:45:18;;;;;;;21.35;8.20;;;;;;;-3.77;73.51;101926.38;1914295;75;21030;-60
2021/11/26 04:47:47;;;;;;;22.05;7.75;;;;;;;-3.74;73.42;101929.07;1915533;75;21546;-60
2021/11/26 04:50:17;;;;;;;20.85;8.20;;;;;;;-3.69;73.29;101928.43;1915550;75;21039;-60
2021/11/26 04:52:46;;;;;;;20.70;7.87;;;;;;;-3.66;73.37;101933.22;1915486;75;21539;-59
2021/11/26 04:55:16;;;;;;;24.05;8.93;;;;;;;-3.61;73.45;101933.86;1909213;75;21098;-59
2021/11/26 04:57:45;;;;;;;28.42;9.33;;;;;;;-3.53;73.62;101938.02;1845695;76;21074;-62
2021/11/26 05:00:16;;;;;;;22.17;9.60;;;;;;;-3.37;73.83;101942.05;1852268;76;21480;-60
2021/11/26 05:02:46;;;;;;;24.60;8.85;;;;;;;-3.15;73.92;101944.59;1886633;76;21184;-60
2021/11/26 05:05:14;;;;;;;27.58;8.75;;;;;;;-2.89;73.74;101948.52;1893841;75;21581;-61
2021/11/26 05:07:43;;;;;;;24.37;8.03;;;;;;;-2.62;73.43;101944.74;1868444;77;21020;-61
2021/11/26 05:10:14;;;;;;;20.57;7.10;;;;;;;-1.94;72.83;101941.77;1915478;75;21003;-60
2021/11/26 05:12:51;;;;;;;21.07;8.58;;;;;;;-1.94;72.83;101941.77;1875452;76;21109;-60
2021/11/26 05:15:15;;;;;;;28.10;11.30;;;;;;;-1.22;71.32;101942.67;1913415;74;21031;-60
2021/11/26 05:17:44;;;;;;;29.07;9.83;;;;;;;-1.22;71.32;101942.67;1881096;76;21058;-59
2021/11/26 05:20:13;;;;;;;23.15;9.95;;;;;;;-0.81;70.95;101942.94;1916787;73;21485;-60
2021/11/26 05:22:42;;;;;;;28.90;10.60;;;;;;;-0.36;70.17;101946.67;1877619;76;21016;-60
2021/11/26 05:25:11;;;;;;;25.48;9.45;;;;;;;0.09;69.48;101866.17;1875207;76;21024;-60
2021/11/26 05:27:39;;;;;;;28.87;10.55;;;;;;;0.52;69.03;101940.53;1874166;76;21443;-60
2021/11/26 05:30:10;;;;;;;28.23;9.85;;;;;;;0.96;68.03;101935.39;1875280;76;21059;-60
2021/11/26 05:32:40;;;;;;;21.07;8.05;;;;;;;1.39;67.20;101935.33;1877644;76;21023;-60
2021/11/26 05:35:14;;;;;;;23.42;9.70;;;;;;;1.92;66.42;101928.00;1914965;75;21117;-60
2021/11/26 05:37:42;;;;;;;;;;;;;;;2.43;65.71;101930.02;1918286;75;21082;-60
2021/11/26 05:40:12;;;;;;;27.75;8.70;;;;;;;2.99;65.20;101929.86;1882657;76;20143;-60
2021/11/26 05:42:41;;;;;;;23.60;8.70;;;;;;;3.50;64.76;101929.50;1915450;75;21007;-60
2021/11/26 05:45:12;;;;;;;24.25;9.55;;;;;;;4.04;64.02;101921.70;1878387;76;21023;-60
2021/11/26 05:47:40;;;;;;;25.43;10.98;;;;;;;4.49;63.26;101932.41;1878298;76;21442;-60
2021/11/26 05:50:12;;;;;;;19.82;6.92;;;;;;;4.86;62.51;101925.60;1878233;76;21040;-60
2021/11/26 05:52:42;;;;;;;20.15;7.50;;;;;;;5.21;61.98;101921.78;1877814;76;21040;-60
2021/11/26 05:55:13;;;;;;;19.90;7.87;;;;;;;5.61;61.32;101910.53;1876411;76;21470;-60
2021/11/26 05:57:42;;;;;;;21.27;6.72;;;;;;;6.05;60.62;101914.89;1913275;74;21465;-60
2021/11/26 06:00:13;;;;;;;19.67;7.47;;;;;;;6.54;59.87;101925.66;1915665;75;21105;-59
2021/11/26 06:02:42;;;;;;;23.95;7.95;;;;;;;6.91;59.17;101927.68;1915352;75;21028;-61
2021/11/26 06:05:11;;;;;;;22.58;9.25;;;;;;;7.18;58.46;101931.50;1915445;75;21477;-59
2021/11/26 06:07:41;;;;;;;20.62;8.48;;;;;;;7.50;57.84;101924.72;1921519;75;21038;-59
2021/11/26 06:10:12;;;;;;;26.37;9.70;;;;;;;7.96;57.14;101924.34;1919137;75;21058;-60
2021/11/26 06:19:15;;;;;;;17.87;7.72;;;;;;;8.89;55.14;101921.61;1922051;75;21066;-60
2021/11/26 06:21:43;;;;;;;30.97;12.90;;;;;;;9.28;54.49;101920.63;1922044;74;21465;-59
2021/11/26 06:24:12;;;;;;;28.10;13.38;;;;;;;9.58;53.94;101910.07;1922268;75;21054;-60
2021/11/26 06:26:41;;;;;;;21.70;10.08;;;;;;;9.99;52.55;101921.64;1922274;75;21081;-60
2021/11/26 06:29:12;;;;;;;29.27;11.10;;;;;;;10.34;52.44;101925.42;1922209;75;21070;-61
2021/11/26 06:31:40;;;;;;;18.75;8.10;;;;;;;10.66;51.43;101927.01;1924515;73;21101;-60
2021/11/26 06:34:09;;;;;;;20.02;8.15;;;;;;;10.89;50.76;101927.86;1940663;73;21502;-61
2021/11/26 06:36:38;;;;;;;14.10;6.97;;;;;;;11.14;50.16;101925.53;1940798;74;21032;-59
2021/11/26 06:39:07;;;;;;;14.23;7.37;;;;;;;11.11;49.03;101921.21;1940697;74;21047;-61
2021/11/26 06:41:36;;;;;;;12.78;6.22;;;;;;;11.22;48.73;101918.34;1936078;74;21502;-61
2021/11/26 06:44:06;;;;;;;12.53;6.50;;;;;;;11.46;47.78;101914.25;1926566;74;21340;-62
2021/11/26 06:46:34;;;;;;;16.67;8.18;;;;;;;11.55;47.37;101907.90;1922174;75;21010;-60
2021/11/26 06:49:04;;;;;;;19.23;9.73;;;;;;;11.92;47.44;101892.02;1922253;75;21108;-60
2021/11/26 06:51:32;;;;;;;23.22;10.70;;;;;;;12.14;46.59;101888.82;1924459;74;21426;-58
2021/11/26 06:54:02;;;;;;;23.55;10.32;;;;;;;12.54;45.79;101893.85;1924184;74;21120;-59
2021/11/26 06:56:30;;;;;;;22.37;10.55;;;;;;;12.77;45.08;101882.20;1924214;74;21499;-60
2021/11/26 06:59:00;;;;;;;24.55;10.28;;;;;;;12.88;44.68;101891.98;1924127;74;21126;-61
2021/11/26 07:01:29;;;;;;;28.98;12.95;;;;;;;13.16;43.89;101888.02;1927952;74;21032;-60
2021/11/26 07:03:59;;;;;;;40.52;14.20;;;;;;;13.34;43.52;101892.37;1940810;74;21031;-60
2021/11/26 07:06:28;;;;;;;27.77;11.43;;;;;;;13.53;43.44;101888.66;1940036;74;21510;-61
2021/11/26 07:08:56;;;;;;;29.00;12.58;;;;;;;13.79;43.28;101889.95;1937762;74;21082;-60
2021/11/26 07:11:25;;;;;;;34.03;16.25;;;;;;;13.95;42.75;101888.13;1938539;74;21024;-59
2021/11/26 07:13:54;;;;;;;34.30;14.85;;;;;;;14.31;41.61;101895.66;1937754;74;21093;-61
2021/11/26 07:16:23;;;;;;;27.85;12.18;;;;;;;14.44;41.03;101890.31;1937790;74;21048;-60
2021/11/26 07:18:52;;;;;;;28.92;12.20;;;;;;;14.62;40.92;101889.66;1937783;74;21540;-60
2021/11/26 07:21:21;;;;;;;35.98;15.72;;;;;;;14.69;40.38;101888.13;1937778;74;21016;-60
2021/11/26 07:23:50;;;;;;;42.27;17.37;;;;;;;14.60;39.84;101890.65;1937691;74;21086;-60
2021/11/26 07:26:19;;;;;;;45.05;18.77;;;;;;;14.58;39.99;101878.77;1937270;74;21099;-62
2021/11/26 07:28:48;;;;;;;47.75;17.92;;;;;;;15.05;39.16;101887.17;1940946;74;21007;-59
2021/11/26 07:31:16;;;;;;;34.23;14.90;;;;;;;15.07;39.38;101887.97;1947811;74;21195;-62
2021/11/26 07:33:45;;;;;;;37.13;14.45;;;;;;;15.52;39.05;101897.63;1947927;74;21012;-61
2021/11/26 07:36:14;;;;;;;37.63;16.67;;;;;;;15.71;38.61;101887.09;1940595;74;21018;-61
2021/11/26 07:38:43;;;;;;;35.73;15.60;;;;;;;15.91;38.13;101890.73;1932150;74;21926;-61
2021/11/26 07:41:11;;;;;;;33.50;14.38;;;;;;;16.08;37.69;101886.86;1931882;74;21074;-61
2021/11/26 07:43:40;;;;;;;28.60;13.80;;;;;;;16.58;37.19;101890.39;1920277;74;21139;-61
2021/11/26 07:46:09;;;;;;;33.42;15.23;;;;;;;16.91;36.27;101888.47;1918649;74;21118;-60
2021/11/26 07:48:38;;;;;;;36.42;15.65;;;;;;;17.23;35.88;101887.37;1919352;75;21030;-61
2021/11/26 07:51:07;;;;;;;31.12;15.28;;;;;;;17.47;35.66;101889.77;1919233;74;21182;-62
2021/11/26 07:53:36;;;;;;;37.28;17.90;;;;;;;16.94;36.12;101882.97;1919330;75;21010;-61
2021/11/26 07:56:05;;;;;;;45.73;18.00;;;;;;;16.65;35.76;101881.65;1919337;75;21096;-61
2021/11/26 07:58:34;;;;;;;37.23;17.32;;;;;;;16.52;35.55;101873.38;1935683;73;21000;-61
2021/11/26 08:01:03;;;;;;;43.73;19.07;;;;;;;16.64;35.53;101863.13;1938854;74;21004;-60
2021/11/26 08:03:32;;;;;;;40.33;15.88;;;;;;;16.95;35.30;101855.45;1938613;74;21008;-60
2021/11/26 08:06:01;;;;;;;35.58;16.20;;;;;;;17.34;34.93;101853.09;1938733;74;21066;-61
2021/11/26 08:08:30;;;;;;;44.75;19.50;;;;;;;17.76;34.44;101842.98;1921656;74;21056;-61
2021/11/26 08:10:58;;;;;;;40.38;16.15;;;;;;;17.90;34.22;101835.66;1930770;74;21450;-61
2021/11/26 08:13:27;;;;;;;38.60;17.60;;;;;;;18.05;33.95;101825.98;1930805;74;21047;-61
2021/11/26 08:15:56;;;;;;;39.10;17.70;;;;;;;18.26;33.53;101831.52;1930359;74;21072;-61
2021/11/26 08:18:25;;;;;;;35.90;16.12;;;;;;;18.30;33.28;101828.21;1930632;74;21560;-61
2021/11/26 08:20:54;;;;;;;34.20;15.08;;;;;;;18.50;33.14;101827.13;1930609;74;21059;-59
2021/11/26 08:23:23;;;;;;;31.12;13.25;;;;;;;18.79;32.83;101828.62;1889013;74;21012;-60
2021/11/26 08:25:52;;;;;;;33.73;13.03;;;;;;;19.00;32.58;101826.59;1917846;74;21007;-60
2021/11/26 08:28:21;;;;;;;29.50;13.35;;;;;;;19.21;32.19;101817.31;1917742;75;21084;-61
2021/11/26 08:30:50;;;;;;;29.60;13.58;;;;;;;19.47;32.24;101809.58;1917629;75;21012;-61
2021/11/26 08:33:19;;;;;;;34.20;13.18;;;;;;;19.65;31.75;101806.30;1914377;73;21051;-60
2021/11/26 08:35:48;;;;;;;31.15;13.48;;;;;;;19.84;31.68;101800.70;1910146;75;21043;-60
2021/11/26 08:38:18;;;;;;;39.78;16.82;;;;;;;20.12;31.65;101801.22;1912779;75;21561;-61
2021/11/26 08:40:47;;;;;;;26.57;12.13;;;;;;;20.23;31.33;101796.50;1912962;75;21485;-60
2021/11/26 08:43:15;;;;;;;24.30;11.63;;;;;;;20.58;30.98;101794.73;1912709;74;21093;-60
2021/11/26 08:45:45;;;;;;;26.40;12.37;;;;;;;20.76;30.53;101792.72;1911330;73;21019;-69
2021/11/26 08:48:14;;;;;;;31.20;12.63;;;;;;;20.58;30.62;101792.05;1942053;72;21053;-68
2021/11/26 08:50:43;;;;;;;32.98;14.58;;;;;;;20.42;30.65;101793.05;1932510;74;21479;-68
2021/11/26 08:53:13;;;;;;;36.85;12.93;;;;;;;20.54;30.45;101789.20;1910925;73;21001;-63
2021/11/26 08:55:47;;;;;;;31.40;12.93;;;;;;;20.43;30.29;101786.73;1945345;72;20987;-64
2021/11/26 08:58:14;;;;;;;35.38;12.82;;;;;;;20.44;30.18;101786.27;1972902;72;21045;-63
2021/11/26 09:00:44;;;;;;;38.28;14.47;;;;;;;20.59;30.25;101786.61;1973195;72;21411;-63
2021/11/26 09:03:15;;;;;;;38.10;13.85;;;;;;;20.41;30.28;101783.30;1973307;72;21019;-63
2021/11/26 09:05:44;;;;;;;50.58;17.92;;;;;;;20.44;30.33;101778.25;1973475;73;21023;-63
2021/11/26 09:08:17;;;;;;;44.88;16.10;;;;;;;20.78;30.06;101772.91;1973010;71;21509;-64
2021/11/26 09:10:48;;;;;;;48.73;17.57;;;;;;;21.16;29.84;101774.87;1973450;73;21032;-63
2021/11/26 09:13:17;;;;;;;50.25;16.60;;;;;;;21.63;29.58;101771.75;1973199;72;21089;-64
2021/11/26 09:15:46;;;;;;;43.00;15.00;;;;;;;21.78;29.11;101766.64;1973195;73;21482;-63
2021/11/26 09:18:17;;;;;;;46.25;17.17;;;;;;;21.62;29.30;101762.01;1973208;73;21467;-63
2021/11/26 09:20:50;;;;;;;55.58;18.07;;;;;;;21.79;29.07;101763.02;1973071;72;21498;-63
2021/11/26 09:23:18;;;;;;;48.60;16.42;;;;;;;21.94;28.46;101767.77;1972984;72;21125;-63
2021/11/26 09:25:48;;;;;;;51.90;18.60;;;;;;;21.66;28.86;101754.12;1973226;73;21020;-63
2021/11/26 09:28:17;;;;;;;54.10;17.77;;;;;;;21.83;28.75;101755.13;1973168;73;21511;-63
2021/11/26 09:30:48;;;;;;;63.58;18.65;;;;;;;22.02;28.50;101753.81;1973147;73;21520;-63
2021/11/26 09:33:19;;;;;;;63.68;17.42;;;;;;;21.19;29.39;101746.55;1973128;72;21008;-63
2021/11/26 09:35:48;;;;;;;51.33;14.75;;;;;;;21.14;29.54;101741.13;1973182;72;21528;-64
2021/11/26 09:38:17;;;;;;;44.63;13.32;;;;;;;21.27;29.50;101730.44;1973194;72;21458;-63
2021/11/26 09:40:48;;;;;;;35.43;12.53;;;;;;;21.30;29.41;101732.42;1973168;72;21097;-63
2021/11/26 09:43:18;;;;;;;32.85;10.68;;;;;;;21.49;29.13;101725.34;1973179;73;21043;-63
2021/11/26 09:45:47;;;;;;;34.35;9.90;;;;;;;21.43;29.18;101737.77;1973168;72;20992;-63
2021/11/26 09:48:16;;;;;;;16.23;8.80;;;;;;;20.95;29.64;101733.45;1973200;73;21016;-64
2021/11/26 09:50:44;;;;;;;20.43;8.48;;;;;;;19.66;30.86;101732.73;1973191;73;21028;-64
2021/11/26 09:53:16;;;;;;;12.20;7.35;;;;;;;19.40;31.09;101728.98;1973241;72;21133;-63
2021/11/26 09:55:48;;;;;;;15.72;7.58;;;;;;;18.70;32.02;101726.83;1973276;73;21023;-64
2021/11/26 09:58:18;;;;;;;16.00;9.10;;;;;;;17.85;32.88;101729.80;1973170;73;21020;-65
2021/11/26 10:00:49;;;;;;;17.30;9.25;;;;;;;18.18;32.77;101727.58;1973263;73;21027;-63
2021/11/26 10:03:18;;;;;;;16.95;9.60;;;;;;;19.06;31.77;101718.13;1973280;72;21024;-64
2021/11/26 10:05:47;;;;;;;15.95;9.13;;;;;;;19.76;31.10;101710.81;1973267;72;21473;-64
2021/11/26 10:08:24;;;;;;;16.10;9.05;;;;;;;20.34;30.43;101712.43;1973568;72;21024;-64
2021/11/26 10:11:02;;;;;;;18.55;8.30;;;;;;;20.50;30.22;101710.96;1983340;72;21203;-64
2021/11/26 10:13:32;;;;;;;13.50;7.87;;;;;;;20.39;30.43;101708.14;1983446;72;21070;-63
2021/11/26 10:16:10;;;;;;;14.63;8.18;;;;;;;20.48;30.11;101707.53;1974392;72;21023;-63
2021/11/26 10:18:40;;;;;;;17.05;8.03;;;;;;;20.35;30.26;101697.27;1970187;73;21051;-64
2021/11/26 10:21:11;;;;;;;14.25;7.75;;;;;;;20.40;30.34;101698.68;1969399;72;21481;-64
2021/11/26 10:23:50;;;;;;;13.85;7.40;;;;;;;20.51;30.29;101697.09;1970328;73;21048;-64
2021/11/26 10:26:27;;;;;;;17.00;8.15;;;;;;;20.36;30.47;101689.14;1970223;72;21067;-64
2021/11/26 10:29:02;;;;;;;18.17;9.03;;;;;;;20.57;30.39;101691.36;1970247;72;21016;-64
2021/11/26 10:31:33;;;;;;;15.83;7.72;;;;;;;20.76;30.20;101682.50;1970139;72;21093;-65
2021/11/26 10:34:04;;;;;;;13.53;6.60;;;;;;;21.19;30.03;101682.73;1970331;73;21085;-64
2021/11/26 10:36:44;;;;;;;12.00;6.35;;;;;;;21.29;29.92;101680.30;1970224;72;21540;-64
2021/11/26 10:39:21;;;;;;;13.22;6.95;;;;;;;21.35;29.77;101674.50;1970316;72;21028;-64
2021/11/26 10:41:49;;;;;;;12.53;6.62;;;;;;;21.25;30.04;101674.30;1968704;72;21064;-64
2021/11/26 10:44:20;;;;;;;11.20;5.75;;;;;;;21.29;30.01;101671.77;1970207;72;21106;-64
2021/11/26 10:47:12;;;;;;;17.55;6.70;;;;;;;21.00;30.18;101668.42;1970226;72;21000;-64
2021/11/26 10:49:41;;;;;;;22.48;7.40;;;;;;;20.27;31.18;101665.67;1956512;72;21036;-63
2021/11/26 10:52:19;;;;;;;12.87;7.27;;;;;;;19.64;32.34;101661.17;1968267;73;21031;-63
2021/11/26 11:00:07;;;;;;;21.87;8.63;;;;;;;19.21;33.00;101667.80;1970426;73;21067;-63
2021/11/26 11:02:39;;;;;;;16.95;8.50;;;;;;;18.70;33.62;101659.26;1970120;73;21056;-63
2021/11/26 11:05:14;;;;;;;21.40;8.85;;;;;;;18.50;33.76;101659.11;1970101;72;21168;-63
2021/11/26 11:07:47;;;;;;;16.62;7.78;;;;;;;17.93;34.40;101662.32;1940398;72;21056;-63
2021/11/26 11:10:27;;;;;;;25.12;9.38;;;;;;;17.22;35.33;101667.87;1971992;72;21125;-63
2021/11/26 11:12:59;;;;;;;17.50;7.55;;;;;;;16.65;36.21;101666.73;1973243;73;21098;-64
2021/11/26 11:15:28;;;;;;;15.65;6.30;;;;;;;17.03;35.86;101668.83;1973141;73;21101;-64
2021/11/26 11:17:57;;;;;;;19.55;8.15;;;;;;;17.14;35.78;101665.14;1973256;72;21383;-64
2021/11/26 11:20:26;;;;;;;15.50;6.70;;;;;;;16.29;37.19;101675.59;1973260;72;21082;-64
2021/11/26 11:22:56;;;;;;;11.08;5.28;;;;;;;15.71;38.29;101666.71;1973183;72;21466;-64
2021/11/26 11:25:28;;;;;;;23.02;8.78;;;;;;;14.73;39.94;101668.37;1973253;73;21039;-64
2021/11/26 11:27:57;;;;;;;18.87;7.70;;;;;;;14.05;41.27;101676.33;1972331;73;21036;-64
2021/11/26 11:30:27;;;;;;;15.53;6.85;;;;;;;13.76;41.99;101679.64;1973286;73;21039;-64
2021/11/26 11:32:57;;;;;;;16.75;6.15;;;;;;;13.24;43.21;101673.55;1973264;73;21105;-64
2021/11/26 11:35:29;;;;;;;12.28;6.20;;;;;;;12.88;43.91;101673.45;1973143;73;21438;-63
2021/11/26 11:38:00;;;;;;;14.60;5.62;;;;;;;12.58;44.56;101666.53;1973162;73;21109;-63